createdAt,value
2023-03-01T00:01:39.958Z,100886.88
2023-03-01T00:05:47.865Z,100879.00
2023-03-01T00:09:50.859Z,100878.75
2023-03-01T00:13:55.686Z,100881.25
2023-03-01T00:17:58.634Z,100888.13
2023-03-01T00:22:03.493Z,100883.78
2023-03-01T00:26:09.505Z,100879.28
2023-03-01T00:30:14.426Z,100886.78
2023-03-01T00:34:17.442Z,100883.97
2023-03-01T00:38:21.865Z,100881.97
2023-03-01T00:42:26.136Z,100884.56
2023-03-01T00:46:31.519Z,100882.88
2023-03-01T00:50:34.901Z,100875.00
2023-03-01T00:54:40.358Z,100868.84
2023-03-01T00:58:43.777Z,100871.25
2023-03-01T01:02:46.880Z,100860.69
2023-03-01T01:06:49.867Z,100858.75
2023-03-01T01:10:54.300Z,100862.13
2023-03-01T01:14:57.321Z,100865.44
2023-03-01T01:19:00.427Z,100861.78
2023-03-01T01:23:04.859Z,100863.22
2023-03-01T01:27:09.382Z,100851.84
2023-03-01T01:31:12.428Z,100849.25
2023-03-01T01:35:15.529Z,100845.66
2023-03-01T01:39:19.288Z,100845.56
2023-03-01T01:43:26.250Z,100843.91
2023-03-01T01:47:35.079Z,100845.47
2023-03-01T01:51:41.148Z,100839.50
2023-03-01T01:55:47.437Z,100829.22
2023-03-01T01:59:54.770Z,100835.31
2023-03-01T02:03:58.191Z,100837.28
2023-03-01T02:08:01.857Z,100822.81
2023-03-01T02:12:06.857Z,100814.38
2023-03-01T02:16:13.741Z,100812.88
2023-03-01T02:20:25.325Z,100818.31
2023-03-01T02:24:36.114Z,100821.00
2023-03-01T02:28:42.391Z,100817.41
2023-03-01T02:32:45.693Z,100821.72
2023-03-01T02:36:51.940Z,100817.25
2023-03-01T02:40:56.849Z,100814.03
2023-03-01T02:45:01.259Z,100813.84
2023-03-01T02:49:04.402Z,100823.88
2023-03-01T02:53:15.297Z,100813.41
2023-03-01T02:57:18.766Z,100804.75
2023-03-01T03:01:24.110Z,100816.88
2023-03-01T03:05:29.623Z,100808.31
2023-03-01T03:09:34.074Z,100801.69
2023-03-01T03:13:37.201Z,100800.63
2023-03-01T03:17:45.266Z,100798.81
2023-03-01T03:21:50.636Z,100794.53
2023-03-01T03:25:53.934Z,100790.25
2023-03-01T03:29:57.307Z,100786.13
2023-03-01T03:34:01.627Z,100785.97
2023-03-01T03:38:10.294Z,100781.09
2023-03-01T03:42:13.245Z,100788.53
2023-03-01T03:46:16.439Z,100787.56
2023-03-01T03:50:21.081Z,100791.59
2023-03-01T03:54:24.327Z,100779.44
2023-03-01T03:58:27.910Z,100787.56
2023-03-01T04:02:31.008Z,100782.38
2023-03-01T04:06:35.528Z,100782.38
2023-03-01T04:10:40.683Z,100779.78
2023-03-01T04:14:43.741Z,100780.78
2023-03-01T04:18:46.951Z,100779.88
2023-03-01T04:22:51.265Z,100772.34
2023-03-01T04:26:54.518Z,100779.34
2023-03-01T04:30:59.006Z,100783.00
2023-03-01T04:35:02.350Z,100786.28
2023-03-01T04:39:13.176Z,100795.22
2023-03-01T04:43:16.610Z,100783.50
2023-03-01T04:47:19.637Z,100788.59
2023-03-01T04:51:22.969Z,100786.00
2023-03-01T04:55:28.485Z,100777.59
2023-03-01T04:59:31.754Z,100780.19
2023-03-01T05:03:34.720Z,100774.84
2023-03-01T05:07:37.756Z,100783.25
2023-03-01T05:11:42.101Z,100786.38
2023-03-01T05:15:45.190Z,100785.72
2023-03-01T05:19:48.272Z,100787.50
2023-03-01T05:23:51.503Z,100785.91
2023-03-01T05:27:56.093Z,100789.38
2023-03-01T05:32:01.963Z,100793.25
2023-03-01T05:36:05.838Z,100784.66
2023-03-01T05:40:16.518Z,100799.59
2023-03-01T05:44:21.245Z,100807.00
2023-03-01T05:48:24.363Z,100815.13
2023-03-01T05:52:27.297Z,100810.00
2023-03-01T05:56:31.354Z,100820.50
2023-03-01T06:00:36.481Z,100814.81
2023-03-01T06:04:39.910Z,100826.53
2023-03-01T06:08:42.901Z,100825.88
2023-03-01T06:12:46.682Z,100820.69
2023-03-01T06:16:51.020Z,100822.22
2023-03-01T06:20:58.058Z,100814.44
2023-03-01T06:25:01.066Z,100821.34
2023-03-01T06:29:04.386Z,100817.78
2023-03-01T06:33:08.793Z,100817.69
2023-03-01T06:37:12.346Z,100824.50
2023-03-01T06:41:15.308Z,100832.19
2023-03-01T06:45:19.826Z,100835.13
2023-03-01T06:49:24.453Z,100844.88
2023-03-01T06:53:27.508Z,100843.56
2023-03-01T06:57:30.954Z,100833.28
2023-03-01T07:01:34.011Z,100832.72
2023-03-01T07:05:38.559Z,100827.22
2023-03-01T07:09:41.693Z,100822.69
2023-03-01T07:13:44.650Z,100813.69
2023-03-01T07:17:49.014Z,100818.78
2023-03-01T07:21:53.605Z,100821.06
2023-03-01T07:25:57.121Z,100818.66
2023-03-01T07:30:00.340Z,100822.78
2023-03-01T07:34:03.443Z,100824.56
2023-03-01T07:38:07.797Z,100818.66
2023-03-01T07:42:11.136Z,100815.56
2023-03-01T07:46:14.116Z,100808.88
2023-03-01T07:50:17.840Z,100809.34
2023-03-01T07:54:22.588Z,100812.53
2023-03-01T07:58:25.794Z,100816.31
2023-03-01T08:02:28.742Z,100809.88
2023-03-01T08:06:32.397Z,100807.81
2023-03-01T08:10:38.437Z,100813.19
2023-03-01T08:14:41.563Z,100817.78
2023-03-01T08:18:45.446Z,100802.72
2023-03-01T08:22:48.629Z,100806.91
2023-03-01T08:26:52.954Z,100804.91
2023-03-01T08:30:56.253Z,100806.53
2023-03-01T08:34:59.384Z,100813.59
2023-03-01T08:39:02.809Z,100807.66
2023-03-01T08:43:07.179Z,100814.09
2023-03-01T08:47:10.356Z,100804.94
2023-03-01T08:51:16.069Z,100794.91
2023-03-01T08:55:19.233Z,100790.06
2023-03-01T08:59:23.804Z,100784.31
2023-03-01T09:03:27.373Z,100781.94
2023-03-01T09:07:30.428Z,100781.53
2023-03-01T09:11:34.291Z,100768.16
2023-03-01T09:15:40.384Z,100764.38
2023-03-01T09:19:43.455Z,100758.84
2023-03-01T09:23:48.044Z,100754.16
2023-03-01T09:27:53.290Z,100746.91
2023-03-01T09:31:57.838Z,100741.38
2023-03-01T09:36:01.433Z,100737.00
2023-03-01T09:40:06.329Z,100741.44
2023-03-01T09:44:18.391Z,100734.91
2023-03-01T09:48:26.141Z,100735.53
2023-03-01T09:52:34.918Z,100720.56
2023-03-01T09:56:41.834Z,100727.34
2023-03-01T10:00:47.329Z,100720.00
2023-03-01T10:04:53.159Z,100711.31
2023-03-01T10:09:00.752Z,100714.09
2023-03-01T10:13:09.155Z,100712.63
2023-03-01T10:17:22.027Z,100701.84
2023-03-01T10:21:30.379Z,100703.38
2023-03-01T10:25:47.028Z,100698.19
2023-03-01T10:30:00.565Z,100691.38
2023-03-01T10:34:03.959Z,100688.75
2023-03-01T10:38:10.419Z,100676.06
2023-03-01T10:42:32.483Z,100673.81
2023-03-01T10:46:38.685Z,100666.72
2023-03-01T10:50:42.801Z,100664.47
2023-03-01T10:54:54.915Z,100658.44
2023-03-01T10:59:03.070Z,100646.53
2023-03-01T11:03:14.091Z,100633.84
2023-03-01T11:07:17.199Z,100622.75
2023-03-01T11:11:28.351Z,100622.25
2023-03-01T11:15:31.908Z,100611.41
2023-03-01T11:19:35.337Z,100608.31
2023-03-01T11:23:41.746Z,100600.66
2023-03-01T11:27:47.608Z,100604.06
2023-03-01T11:31:57.887Z,100607.44
2023-03-01T11:36:05.424Z,100600.81
2023-03-01T11:40:15.782Z,100602.72
2023-03-01T11:44:25.357Z,100593.38
2023-03-01T11:48:49.715Z,100595.25
2023-03-01T11:53:03.871Z,100602.16
2023-03-01T11:57:20.790Z,100598.88
2023-03-01T12:01:39.751Z,100593.03
2023-03-01T12:06:07.658Z,100583.50
2023-03-01T12:10:24.434Z,100590.91
2023-03-01T12:14:50.425Z,100588.53
2023-03-01T12:19:13.152Z,100583.50
2023-03-01T12:23:41.101Z,100586.00
2023-03-01T12:28:16.490Z,100567.84
2023-03-01T12:32:42.316Z,100557.63
2023-03-01T12:36:59.994Z,100560.34
2023-03-01T12:41:25.369Z,100562.28
2023-03-01T12:45:42.491Z,100549.31
2023-03-01T12:49:50.322Z,100550.22
2023-03-01T12:53:57.086Z,100545.91
2023-03-01T12:58:10.728Z,100547.72
2023-03-01T13:02:24.048Z,100538.06
2023-03-01T13:06:43.336Z,100540.97
2023-03-01T13:10:52.482Z,100536.84
2023-03-01T13:14:56.803Z,100530.16
2023-03-01T13:19:10.905Z,100537.34
2023-03-01T13:23:29.766Z,100521.66
2023-03-01T13:27:34.153Z,100521.66
2023-03-01T13:32:01.682Z,100547.13
2023-03-01T13:36:08.110Z,100529.81
2023-03-01T13:40:48.397Z,100516.97
2023-03-01T13:44:52.820Z,100501.28
2023-03-01T13:48:58.806Z,100504.84
2023-03-01T13:53:05.275Z,100502.03
2023-03-01T13:57:21.515Z,100496.72
2023-03-01T14:01:29.943Z,100484.44
2023-03-01T14:05:33.668Z,100478.22
2023-03-01T14:09:42.204Z,100474.63
2023-03-01T14:14:00.823Z,100469.38
2023-03-01T14:18:15.005Z,100467.63
2023-03-01T14:22:24.047Z,100468.56
2023-03-01T14:26:27.538Z,100462.34
2023-03-01T14:30:35.051Z,100458.81
2023-03-01T14:34:45.546Z,100455.28
2023-03-01T14:38:49.716Z,100452.69
2023-03-01T14:42:53.666Z,100450.00
2023-03-01T14:46:58.393Z,100445.53
2023-03-01T14:51:03.496Z,100446.34
2023-03-01T14:55:09.540Z,100446.34
2023-03-01T14:59:13.395Z,100444.50
2023-03-01T15:03:25.775Z,100445.38
2023-03-01T15:07:33.610Z,100444.50
2023-03-01T15:11:38.021Z,100437.44
2023-03-01T15:15:44.925Z,100437.47
2023-03-01T15:19:48.746Z,100442.81
2023-03-01T15:23:56.461Z,100437.59
2023-03-01T15:28:02.128Z,100439.34
2023-03-01T15:32:08.040Z,100437.56
2023-03-01T15:36:33.853Z,100429.66
2023-03-01T15:40:50.952Z,100427.06
2023-03-01T15:45:10.246Z,100426.16
2023-03-01T15:49:29.831Z,100433.09
2023-03-01T15:53:33.144Z,100427.88
2023-03-01T15:57:37.518Z,100439.25
2023-03-01T16:01:40.545Z,100442.72
2023-03-01T16:05:44.076Z,100439.25
2023-03-01T16:09:47.224Z,100433.16
2023-03-01T16:13:51.874Z,100426.16
2023-03-01T16:17:55.275Z,100430.47
2023-03-01T16:21:58.318Z,100421.63
2023-03-01T16:26:01.674Z,100424.16
2023-03-01T16:30:07.195Z,100424.09
2023-03-01T16:34:10.924Z,100428.34
2023-03-01T16:38:14.007Z,100424.72
2023-03-01T16:42:17.441Z,100416.69
2023-03-01T16:46:23.953Z,100429.66
2023-03-01T16:50:27.274Z,100429.56
2023-03-01T16:54:30.499Z,100438.22
2023-03-01T16:58:33.623Z,100437.22
2023-03-01T17:02:38.258Z,100437.09
2023-03-01T17:06:41.596Z,100443.16
2023-03-01T17:10:44.920Z,100440.44
2023-03-01T17:14:50.082Z,100437.75
2023-03-01T17:18:55.103Z,100434.22
2023-03-01T17:22:58.861Z,100439.38
2023-03-01T17:27:02.041Z,100437.47
2023-03-01T17:31:06.802Z,100430.38
2023-03-01T17:35:12.255Z,100435.50
2023-03-01T17:39:15.455Z,100445.88
2023-03-01T17:43:20.089Z,100448.31
2023-03-01T17:47:23.205Z,100443.78
2023-03-01T17:51:27.604Z,100442.72
2023-03-01T17:55:30.868Z,100441.66
2023-03-01T17:59:34.129Z,100451.88
2023-03-01T18:03:37.413Z,100455.19
2023-03-01T18:07:41.937Z,100449.75
2023-03-01T18:11:46.921Z,100450.47
2023-03-01T18:15:50.833Z,100450.34
2023-03-01T18:19:56.224Z,100447.53
2023-03-01T18:24:00.671Z,100443.84
2023-03-01T18:28:04.540Z,100443.69
2023-03-01T18:32:08.548Z,100443.56
2023-03-01T18:36:20.270Z,100442.59
2023-03-01T18:40:24.635Z,100445.06
2023-03-01T18:44:27.756Z,100440.56
2023-03-01T18:48:30.713Z,100441.22
2023-03-01T18:52:33.750Z,100437.59
2023-03-01T18:56:38.437Z,100438.25
2023-03-01T19:00:41.691Z,100444.09
2023-03-01T19:04:44.656Z,100442.06
2023-03-01T19:08:48.297Z,100436.56
2023-03-01T19:12:52.676Z,100441.50
2023-03-01T19:16:55.780Z,100436.91
2023-03-01T19:21:03.883Z,100435.84
2023-03-01T19:25:08.554Z,100436.63
2023-03-01T19:29:13.164Z,100439.06
2023-03-01T19:33:16.184Z,100444.16
2023-03-01T19:37:19.179Z,100435.34
2023-03-01T19:41:22.707Z,100436.97
2023-03-01T19:45:33.356Z,100432.41
2023-03-01T19:49:37.841Z,100429.63
2023-03-01T19:53:42.002Z,100427.72
2023-03-01T19:57:45.296Z,100429.28
2023-03-01T20:01:49.778Z,100441.22
2023-03-01T20:05:52.936Z,100442.66
2023-03-01T20:09:56.085Z,100438.88
2023-03-01T20:13:59.232Z,100443.91
2023-03-01T20:18:03.591Z,100454.00
2023-03-01T20:22:06.795Z,100454.56
2023-03-01T20:26:15.148Z,100456.91
2023-03-01T20:30:18.741Z,100460.19
2023-03-01T20:34:23.090Z,100461.66
2023-03-01T20:38:27.238Z,100461.41
2023-03-01T20:42:30.200Z,100469.09
2023-03-01T20:46:34.822Z,100469.03
2023-03-01T20:50:42.851Z,100470.66
2023-03-01T20:54:45.930Z,100477.63
2023-03-01T20:58:49.472Z,100474.94
2023-03-01T21:02:52.827Z,100478.41
2023-03-01T21:06:57.218Z,100481.81
2023-03-01T21:11:00.836Z,100469.59
2023-03-01T21:15:03.976Z,100474.00
2023-03-01T21:19:07.422Z,100461.03
2023-03-01T21:23:11.749Z,100472.19
2023-03-01T21:27:14.804Z,100468.59
2023-03-01T21:31:19.947Z,100467.72
2023-03-01T21:35:23.152Z,100463.38
2023-03-01T21:39:28.949Z,100460.03
2023-03-01T21:43:32.081Z,100461.69
2023-03-01T21:47:36.237Z,100465.84
2023-03-01T21:51:39.698Z,100456.28
2023-03-01T21:55:49.370Z,100460.56
2023-03-01T21:59:52.393Z,100456.06
2023-03-01T22:03:56.162Z,100447.28
2023-03-01T22:07:59.272Z,100451.59
2023-03-01T22:12:03.724Z,100450.53
2023-03-01T22:16:07.733Z,100461.63
2023-03-01T22:20:12.065Z,100443.91
2023-03-01T22:24:15.215Z,100447.34
2023-03-01T22:28:20.266Z,100443.91
2023-03-01T22:32:23.532Z,100445.50
2023-03-01T22:36:27.101Z,100452.53
2023-03-01T22:40:30.244Z,100452.53
2023-03-01T22:44:34.572Z,100453.44
2023-03-01T22:48:37.639Z,100451.59
2023-03-01T22:52:40.802Z,100444.59
2023-03-01T22:56:44.236Z,100447.13
2023-03-01T23:00:48.567Z,100441.91
2023-03-01T23:04:54.178Z,100448.94
2023-03-01T23:08:58.701Z,100446.38
2023-03-01T23:13:01.737Z,100449.81
2023-03-01T23:17:08.067Z,100455.09
2023-03-01T23:21:12.699Z,100455.03
2023-03-01T23:25:16.092Z,100453.44
2023-03-01T23:29:19.110Z,100447.47
2023-03-01T23:33:23.490Z,100448.34
2023-03-01T23:37:31.163Z,100453.81
2023-03-01T23:41:36.276Z,100442.72
2023-03-01T23:45:42.983Z,100442.84
2023-03-01T23:49:47.321Z,100436.69
2023-03-01T23:53:55.318Z,100442.59
2023-03-01T23:57:58.268Z,100441.66
